sensor_id;sensor_type;location;lat;lon;timestamp;pressure;altitude;pressure_sealevel;temperature;humidity
13869;BME280;7004;48.206;16.402;2023-12-20T00:01:43;99624.03;;;0.58;97.52
13869;BME280;7004;48.206;16.402;2023-12-20T00:04:10;99631.56;;;0.33;99.24
13869;BME280;7004;48.206;16.402;2023-12-20T00:06:36;99635.91;;;-0.06;100.00
13869;BME280;7004;48.206;16.402;2023-12-20T00:09:02;99641.56;;;-0.28;100.00
13869;BME280;7004;48.206;16.402;2023-12-20T00:11:28;99657.06;;;-0.25;100.00
13869;BME280;7004;48.206;16.402;2023-12-20T00:13:55;99664.94;;;-0.28;100.00
13869;BME280;7004;48.206;16.402;2023-12-20T00:16:22;99646.06;;;0.05;100.00
13869;BME280;7004;48.206;16.402;2023-12-20T00:18:48;99651.53;;;-0.08;98.98
13869;BME280;7004;48.206;16.402;2023-12-20T00:21:14;99630.78;;;-0.09;97.99
13869;BME280;7004;48.206;16.402;2023-12-20T00:23:40;99642.53;;;0.07;98.98
13869;BME280;7004;48.206;16.402;2023-12-20T00:26:06;99634.19;;;0.32;97.76
13869;BME280;7004;48.206;16.402;2023-12-20T00:28:32;99636.72;;;-0.04;97.73
13869;BME280;7004;48.206;16.402;2023-12-20T00:30:58;99636.41;;;0.11;98.22
13869;BME280;7004;48.206;16.402;2023-12-20T00:33:24;99629.19;;;0.22;97.35
13869;BME280;7004;48.206;16.402;2023-12-20T00:35:50;99645.13;;;0.09;97.19
13869;BME280;7004;48.206;16.402;2023-12-20T00:38:17;99653.47;;;-0.17;96.45
13869;BME280;7004;48.206;16.402;2023-12-20T00:40:43;99647.78;;;0.06;96.09
13869;BME280;7004;48.206;16.402;2023-12-20T00:43:09;99644.25;;;-0.32;95.82
13869;BME280;7004;48.206;16.402;2023-12-20T00:45:35;99636.91;;;-0.55;96.78
13869;BME280;7004;48.206;16.402;2023-12-20T00:48:01;99637.06;;;-0.21;97.27
13869;BME280;7004;48.206;16.402;2023-12-20T00:50:27;99646.38;;;-0.53;97.34
13869;BME280;7004;48.206;16.402;2023-12-20T00:52:53;99640.94;;;-0.39;98.30
13869;BME280;7004;48.206;16.402;2023-12-20T00:55:20;99647.13;;;-0.04;97.77
13869;BME280;7004;48.206;16.402;2023-12-20T00:57:46;99644.44;;;-0.41;97.55
13869;BME280;7004;48.206;16.402;2023-12-20T01:00:13;99650.13;;;-0.24;99.49
13869;BME280;7004;48.206;16.402;2023-12-20T01:02:39;99661.59;;;-0.34;98.66
13869;BME280;7004;48.206;16.402;2023-12-20T01:05:12;99626.31;;;-0.45;98.78
13869;BME280;7004;48.206;16.402;2023-12-20T01:07:43;99642.25;;;-0.19;99.48
13869;BME280;7004;48.206;16.402;2023-12-20T01:10:15;99642.47;;;-0.30;99.34
13869;BME280;7004;48.206;16.402;2023-12-20T01:12:45;99661.78;;;-0.43;97.47
13869;BME280;7004;48.206;16.402;2023-12-20T01:15:15;99654.75;;;-0.83;97.45
13869;BME280;7004;48.206;16.402;2023-12-20T01:17:44;99648.75;;;-0.87;96.23
13869;BME280;7004;48.206;16.402;2023-12-20T01:20:13;99641.41;;;-0.65;97.67
13869;BME280;7004;48.206;16.402;2023-12-20T01:22:46;99630.84;;;-0.54;97.78
13869;BME280;7004;48.206;16.402;2023-12-20T01:25:19;99622.91;;;-0.47;99.18
13869;BME280;7004;48.206;16.402;2023-12-20T01:27:50;99630.38;;;-0.75;98.87
13869;BME280;7004;48.206;16.402;2023-12-20T01:30:28;99627.56;;;-0.64;99.55
13869;BME280;7004;48.206;16.402;2023-12-20T01:33:00;99626.72;;;-0.64;98.44
13869;BME280;7004;48.206;16.402;2023-12-20T01:35:28;99638.91;;;-0.25;97.41
13869;BME280;7004;48.206;16.402;2023-12-20T01:37:56;99618.47;;;-0.86;98.53
13869;BME280;7004;48.206;16.402;2023-12-20T01:40:24;99606.59;;;-1.00;98.48
13869;BME280;7004;48.206;16.402;2023-12-20T01:43:09;99612.81;;;-0.62;98.21
13869;BME280;7004;48.206;16.402;2023-12-20T01:45:38;99613.66;;;-0.19;96.40
13869;BME280;7004;48.206;16.402;2023-12-20T01:48:09;99599.38;;;-0.84;98.54
13869;BME280;7004;48.206;16.402;2023-12-20T01:50:44;99585.63;;;-0.44;98.66
13869;BME280;7004;48.206;16.402;2023-12-20T01:53:13;99585.75;;;-0.50;97.46
13869;BME280;7004;48.206;16.402;2023-12-20T01:55:45;99584.09;;;-0.54;99.32
13869;BME280;7004;48.206;16.402;2023-12-20T01:58:19;99588.50;;;-0.58;98.18
13869;BME280;7004;48.206;16.402;2023-12-20T02:00:50;99579.56;;;-0.45;97.49
13869;BME280;7004;48.206;16.402;2023-12-20T02:03:19;99575.25;;;-0.89;99.42
13869;BME280;7004;48.206;16.402;2023-12-20T02:05:53;99562.94;;;-0.78;99.99
13869;BME280;7004;48.206;16.402;2023-12-20T02:08:19;99552.34;;;-0.67;99.98
13869;BME280;7004;48.206;16.402;2023-12-20T02:10:45;99547.81;;;-0.18;97.63
13869;BME280;7004;48.206;16.402;2023-12-20T02:13:11;99543.69;;;-0.27;97.48
13869;BME280;7004;48.206;16.402;2023-12-20T02:15:37;99554.13;;;-0.71;95.86
13869;BME280;7004;48.206;16.402;2023-12-20T02:18:07;99546.56;;;-0.81;96.84
13869;BME280;7004;48.206;16.402;2023-12-20T02:20:34;99542.19;;;-0.79;97.22
13869;BME280;7004;48.206;16.402;2023-12-20T02:23:02;99532.66;;;-0.77;95.58
13869;BME280;7004;48.206;16.402;2023-12-20T02:25:28;99525.41;;;-0.63;95.87
13869;BME280;7004;48.206;16.402;2023-12-20T02:27:55;99513.50;;;-0.72;97.34
13869;BME280;7004;48.206;16.402;2023-12-20T02:30:21;99508.22;;;-0.69;97.37
13869;BME280;7004;48.206;16.402;2023-12-20T02:32:50;99512.44;;;-0.63;97.57
13869;BME280;7004;48.206;16.402;2023-12-20T02:35:17;99497.94;;;-0.33;96.12
13869;BME280;7004;48.206;16.402;2023-12-20T02:37:44;99485.16;;;-0.42;95.81
13869;BME280;7004;48.206;16.402;2023-12-20T02:40:10;99485.38;;;-0.53;95.95
13869;BME280;7004;48.206;16.402;2023-12-20T02:42:37;99487.75;;;-0.42;96.46
13869;BME280;7004;48.206;16.402;2023-12-20T02:45:04;99475.41;;;-0.32;96.15
13869;BME280;7004;48.206;16.402;2023-12-20T02:47:30;99472.72;;;-0.28;95.74
13869;BME280;7004;48.206;16.402;2023-12-20T02:49:57;99475.97;;;-0.18;96.49
13869;BME280;7004;48.206;16.402;2023-12-20T02:52:24;99479.41;;;-0.17;95.10
13869;BME280;7004;48.206;16.402;2023-12-20T02:54:51;99481.44;;;-0.30;94.59
13869;BME280;7004;48.206;16.402;2023-12-20T02:57:17;99487.25;;;-1.00;95.54
13869;BME280;7004;48.206;16.402;2023-12-20T02:59:43;99483.88;;;-1.03;96.08
13869;BME280;7004;48.206;16.402;2023-12-20T03:02:09;99471.72;;;-0.59;96.54
13869;BME280;7004;48.206;16.402;2023-12-20T03:04:35;99462.66;;;-0.43;95.22
13869;BME280;7004;48.206;16.402;2023-12-20T03:07:01;99452.75;;;-0.26;94.37
13869;BME280;7004;48.206;16.402;2023-12-20T03:09:29;99455.72;;;-0.41;95.29
13869;BME280;7004;48.206;16.402;2023-12-20T03:11:55;99460.66;;;-0.30;95.15
13869;BME280;7004;48.206;16.402;2023-12-20T03:14:22;99487.13;;;-1.39;97.33
13869;BME280;7004;48.206;16.402;2023-12-20T03:16:51;99482.44;;;-1.20;97.32
13869;BME280;7004;48.206;16.402;2023-12-20T03:19:18;99473.81;;;-0.78;96.94
13869;BME280;7004;48.206;16.402;2023-12-20T03:21:46;99464.13;;;-0.31;96.44
13869;BME280;7004;48.206;16.402;2023-12-20T03:24:12;99480.41;;;-1.04;96.22
13869;BME280;7004;48.206;16.402;2023-12-20T03:26:39;99479.41;;;-0.97;95.87
13869;BME280;7004;48.206;16.402;2023-12-20T03:29:05;99467.47;;;-0.65;94.28
13869;BME280;7004;48.206;16.402;2023-12-20T03:31:32;99468.88;;;-0.49;94.18
13869;BME280;7004;48.206;16.402;2023-12-20T03:33:58;99473.56;;;-0.66;95.19
13869;BME280;7004;48.206;16.402;2023-12-20T03:36:24;99483.13;;;-1.55;95.20
13869;BME280;7004;48.206;16.402;2023-12-20T03:38:50;99473.09;;;-1.27;95.38
13869;BME280;7004;48.206;16.402;2023-12-20T03:41:16;99476.81;;;-0.97;98.27
13869;BME280;7004;48.206;16.402;2023-12-20T03:43:43;99479.44;;;-0.98;97.32
13869;BME280;7004;48.206;16.402;2023-12-20T03:46:10;99468.88;;;-0.89;95.92
13869;BME280;7004;48.206;16.402;2023-12-20T03:48:36;99468.69;;;-1.22;98.54
13869;BME280;7004;48.206;16.402;2023-12-20T03:51:02;99466.84;;;-1.17;99.61
13869;BME280;7004;48.206;16.402;2023-12-20T03:53:28;99464.31;;;-0.78;97.79
13869;BME280;7004;48.206;16.402;2023-12-20T03:55:55;99469.75;;;-1.34;98.87
13869;BME280;7004;48.206;16.402;2023-12-20T03:58:21;99467.22;;;-1.37;98.16
13869;BME280;7004;48.206;16.402;2023-12-20T04:00:47;99468.19;;;-1.42;97.41
13869;BME280;7004;48.206;16.402;2023-12-20T04:03:14;99466.16;;;-1.26;97.07
13869;BME280;7004;48.206;16.402;2023-12-20T04:05:41;99465.56;;;-0.97;97.54
13869;BME280;7004;48.206;16.402;2023-12-20T04:08:09;99469.78;;;-0.92;97.06
13869;BME280;7004;48.206;16.402;2023-12-20T04:10:38;99464.94;;;-1.08;96.34
13869;BME280;7004;48.206;16.402;2023-12-20T04:13:04;99470.28;;;-1.16;96.81
13869;BME280;7004;48.206;16.402;2023-12-20T04:15:30;99466.84;;;-1.17;96.26
13869;BME280;7004;48.206;16.402;2023-12-20T04:17:57;99465.66;;;-1.00;96.96
13869;BME280;7004;48.206;16.402;2023-12-20T04:20:23;99465.56;;;-0.97;94.93
13869;BME280;7004;48.206;16.402;2023-12-20T04:22:49;99471.53;;;-0.94;95.01
13869;BME280;7004;48.206;16.402;2023-12-20T04:25:15;99474.25;;;-1.42;95.74
13869;BME280;7004;48.206;16.402;2023-12-20T04:27:41;99478.06;;;-1.16;96.28
13869;BME280;7004;48.206;16.402;2023-12-20T04:30:08;99481.44;;;-1.11;95.79
13869;BME280;7004;48.206;16.402;2023-12-20T04:32:36;99475.72;;;-1.28;95.74
13869;BME280;7004;48.206;16.402;2023-12-20T04:35:03;99475.41;;;-1.13;95.76
13869;BME280;7004;48.206;16.402;2023-12-20T04:37:29;99467.56;;;-1.10;95.63
13869;BME280;7004;48.206;16.402;2023-12-20T04:39:55;99471.00;;;-1.10;95.16
13869;BME280;7004;48.206;16.402;2023-12-20T04:42:21;99472.03;;;-1.17;95.65
13869;BME280;7004;48.206;16.402;2023-12-20T04:44:47;99470.38;;;-1.21;95.39
13869;BME280;7004;48.206;16.402;2023-12-20T04:47:13;99469.19;;;-1.49;96.34
13869;BME280;7004;48.206;16.402;2023-12-20T04:49:39;99465.41;;;-1.33;96.41
13869;BME280;7004;48.206;16.402;2023-12-20T04:52:05;99466.44;;;-0.97;95.39
13869;BME280;7004;48.206;16.402;2023-12-20T04:54:31;99468.00;;;-1.33;95.76
13869;BME280;7004;48.206;16.402;2023-12-20T04:56:57;99466.47;;;-1.42;96.51
13869;BME280;7004;48.206;16.402;2023-12-20T04:59:23;99461.63;;;-1.15;96.62
13869;BME280;7004;48.206;16.402;2023-12-20T05:01:49;99450.38;;;-1.14;95.87
13869;BME280;7004;48.206;16.402;2023-12-20T05:04:15;99448.56;;;-1.11;95.61
13869;BME280;7004;48.206;16.402;2023-12-20T05:06:42;99447.72;;;-1.13;95.14
13869;BME280;7004;48.206;16.402;2023-12-20T05:09:08;99442.41;;;-1.06;95.83
13869;BME280;7004;48.206;16.402;2023-12-20T05:11:35;99436.09;;;-0.93;95.47
13869;BME280;7004;48.206;16.402;2023-12-20T05:14:01;99446.72;;;-1.49;96.67
13869;BME280;7004;48.206;16.402;2023-12-20T05:16:27;99442.75;;;-1.22;96.65
13869;BME280;7004;48.206;16.402;2023-12-20T05:18:53;99442.94;;;-1.33;95.93
13869;BME280;7004;48.206;16.402;2023-12-20T05:21:19;99444.44;;;-1.21;96.49
13869;BME280;7004;48.206;16.402;2023-12-20T05:23:45;99443.38;;;-1.11;95.98
13869;BME280;7004;48.206;16.402;2023-12-20T05:26:12;99444.50;;;-1.24;96.53
13869;BME280;7004;48.206;16.402;2023-12-20T05:28:38;99457.56;;;-1.28;96.70
13869;BME280;7004;48.206;16.402;2023-12-20T05:31:04;99450.91;;;-1.43;96.42
13869;BME280;7004;48.206;16.402;2023-12-20T05:33:30;99447.69;;;-1.55;96.67
13869;BME280;7004;48.206;16.402;2023-12-20T05:35:56;99439.69;;;-1.44;98.12
13869;BME280;7004;48.206;16.402;2023-12-20T05:38:22;99434.59;;;-1.48;97.71
13869;BME280;7004;48.206;16.402;2023-12-20T05:40:49;99429.63;;;-1.16;99.55
13869;BME280;7004;48.206;16.402;2023-12-20T05:43:15;99437.72;;;-0.89;97.39
13869;BME280;7004;48.206;16.402;2023-12-20T05:45:41;99446.88;;;-1.13;96.59
13869;BME280;7004;48.206;16.402;2023-12-20T05:48:08;99451.63;;;-0.92;97.16
13869;BME280;7004;48.206;16.402;2023-12-20T05:50:34;99451.28;;;-1.17;97.41
13869;BME280;7004;48.206;16.402;2023-12-20T05:53:01;99444.06;;;-1.02;98.29
13869;BME280;7004;48.206;16.402;2023-12-20T05:55:27;99437.25;;;-0.68;97.00
13869;BME280;7004;48.206;16.402;2023-12-20T05:57:53;99437.88;;;-0.56;96.66
13869;BME280;7004;48.206;16.402;2023-12-20T06:00:19;99438.75;;;-0.20;95.38
13869;BME280;7004;48.206;16.402;2023-12-20T06:02:45;99457.13;;;-0.28;95.68
13869;BME280;7004;48.206;16.402;2023-12-20T06:05:11;99453.34;;;0.20;100.00
13869;BME280;7004;48.206;16.402;2023-12-20T06:07:37;99466.19;;;-0.84;98.54
13869;BME280;7004;48.206;16.402;2023-12-20T06:10:03;99471.97;;;-0.72;98.03
13869;BME280;7004;48.206;16.402;2023-12-20T06:12:32;99462.50;;;-0.74;99.00
13869;BME280;7004;48.206;16.402;2023-12-20T06:15:02;99461.16;;;-0.92;99.74
13869;BME280;7004;48.206;16.402;2023-12-20T06:17:28;99461.84;;;-0.84;99.26
13869;BME280;7004;48.206;16.402;2023-12-20T06:19:56;99459.91;;;-0.35;98.89
13869;BME280;7004;48.206;16.402;2023-12-20T06:22:25;99468.66;;;-0.02;97.94
13869;BME280;7004;48.206;16.402;2023-12-20T06:24:51;99461.81;;;-0.06;100.00
13869;BME280;7004;48.206;16.402;2023-12-20T06:27:17;99465.66;;;0.13;98.26
13869;BME280;7004;48.206;16.402;2023-12-20T06:29:44;99458.00;;;0.41;98.22
13869;BME280;7004;48.206;16.402;2023-12-20T06:32:10;99457.66;;;1.16;98.56
13869;BME280;7004;48.206;16.402;2023-12-20T06:34:37;99472.47;;;0.52;95.99
13869;BME280;7004;48.206;16.402;2023-12-20T06:37:04;99466.28;;;3.03;98.01
13869;BME280;7004;48.206;16.402;2023-12-20T06:39:30;99476.81;;;3.25;95.10
13869;BME280;7004;48.206;16.402;2023-12-20T06:41:57;99461.03;;;4.36;91.28
13869;BME280;7004;48.206;16.402;2023-12-20T06:44:23;99464.66;;;4.54;90.45
13869;BME280;7004;48.206;16.402;2023-12-20T06:46:49;99479.03;;;4.85;89.01
13869;BME280;7004;48.206;16.402;2023-12-20T06:49:15;99472.66;;;5.30;86.44
13869;BME280;7004;48.206;16.402;2023-12-20T06:51:41;99461.91;;;5.91;84.08
13869;BME280;7004;48.206;16.402;2023-12-20T06:54:07;99464.66;;;5.88;84.03
13869;BME280;7004;48.206;16.402;2023-12-20T06:56:33;99445.91;;;6.15;82.70
13869;BME280;7004;48.206;16.402;2023-12-20T06:58:59;99444.22;;;6.49;80.56
13869;BME280;7004;48.206;16.402;2023-12-20T07:01:26;99431.22;;;6.63;79.19
13869;BME280;7004;48.206;16.402;2023-12-20T07:03:52;99417.94;;;6.82;78.69
13869;BME280;7004;48.206;16.402;2023-12-20T07:06:18;99418.19;;;7.11;76.39
13869;BME280;7004;48.206;16.402;2023-12-20T07:08:45;99421.41;;;7.16;75.77
13869;BME280;7004;48.206;16.402;2023-12-20T07:11:11;99423.00;;;7.18;75.67
13869;BME280;7004;48.206;16.402;2023-12-20T07:13:37;99436.84;;;7.06;75.99
13869;BME280;7004;48.206;16.402;2023-12-20T07:16:04;99450.06;;;7.20;75.63
13869;BME280;7004;48.206;16.402;2023-12-20T07:18:30;99443.91;;;7.37;73.98
13869;BME280;7004;48.206;16.402;2023-12-20T07:20:57;99472.81;;;7.21;74.63
13869;BME280;7004;48.206;16.402;2023-12-20T07:23:23;99461.91;;;7.45;71.74
13869;BME280;7004;48.206;16.402;2023-12-20T07:25:49;99471.47;;;7.46;71.27
13869;BME280;7004;48.206;16.402;2023-12-20T07:28:15;99477.91;;;7.25;72.84
13869;BME280;7004;48.206;16.402;2023-12-20T07:30:41;99492.34;;;7.49;73.42
13869;BME280;7004;48.206;16.402;2023-12-20T07:33:07;99488.47;;;7.07;79.46
13869;BME280;7004;48.206;16.402;2023-12-20T07:35:35;99502.22;;;6.95;82.55
13869;BME280;7004;48.206;16.402;2023-12-20T07:38:01;99505.84;;;7.10;83.64
13869;BME280;7004;48.206;16.402;2023-12-20T07:40:28;99512.69;;;6.79;86.89
13869;BME280;7004;48.206;16.402;2023-12-20T07:42:54;99503.31;;;7.08;83.79
13869;BME280;7004;48.206;16.402;2023-12-20T07:45:21;99495.34;;;7.10;82.13
13869;BME280;7004;48.206;16.402;2023-12-20T07:47:47;99499.00;;;6.90;84.67
13869;BME280;7004;48.206;16.402;2023-12-20T07:50:13;99499.78;;;6.92;83.54
13869;BME280;7004;48.206;16.402;2023-12-20T07:52:40;99499.16;;;6.87;84.33
13869;BME280;7004;48.206;16.402;2023-12-20T07:55:07;99501.16;;;6.99;85.58
13869;BME280;7004;48.206;16.402;2023-12-20T07:57:33;99487.81;;;6.86;85.74
13869;BME280;7004;48.206;16.402;2023-12-20T08:00:00;99492.06;;;6.89;86.49
13869;BME280;7004;48.206;16.402;2023-12-20T08:02:26;99490.91;;;6.77;87.10
13869;BME280;7004;48.206;16.402;2023-12-20T08:04:53;99476.75;;;6.79;87.07
13869;BME280;7004;48.206;16.402;2023-12-20T08:07:19;99486.97;;;6.86;89.45
13869;BME280;7004;48.206;16.402;2023-12-20T08:09:45;99484.38;;;7.02;87.42
13869;BME280;7004;48.206;16.402;2023-12-20T08:12:11;99483.81;;;7.12;86.38
13869;BME280;7004;48.206;16.402;2023-12-20T08:14:37;99483.78;;;6.96;87.71
13869;BME280;7004;48.206;16.402;2023-12-20T08:17:04;99496.38;;;7.23;84.49
13869;BME280;7004;48.206;16.402;2023-12-20T08:19:30;99494.00;;;7.18;83.89
13869;BME280;7004;48.206;16.402;2023-12-20T08:21:56;99473.13;;;7.15;85.23
13869;BME280;7004;48.206;16.402;2023-12-20T08:24:22;99486.47;;;7.28;83.35
13869;BME280;7004;48.206;16.402;2023-12-20T08:26:48;99489.09;;;7.28;81.27
13869;BME280;7004;48.206;16.402;2023-12-20T08:29:14;99489.69;;;7.33;81.14
13869;BME280;7004;48.206;16.402;2023-12-20T08:31:40;99491.31;;;7.36;79.45
13869;BME280;7004;48.206;16.402;2023-12-20T08:34:06;99498.38;;;7.35;78.97
13869;BME280;7004;48.206;16.402;2023-12-20T08:36:32;99505.16;;;7.39;78.10
13869;BME280;7004;48.206;16.402;2023-12-20T08:38:58;99520.28;;;7.18;79.90
13869;BME280;7004;48.206;16.402;2023-12-20T08:41:27;99523.16;;;7.47;77.67
13869;BME280;7004;48.206;16.402;2023-12-20T08:43:53;99511.56;;;7.34;78.64
13869;BME280;7004;48.206;16.402;2023-12-20T08:46:19;99505.66;;;7.30;78.66
13869;BME280;7004;48.206;16.402;2023-12-20T08:48:45;99514.38;;;7.31;78.63
13869;BME280;7004;48.206;16.402;2023-12-20T08:51:13;99527.63;;;7.29;77.82
13869;BME280;7004;48.206;16.402;2023-12-20T08:53:39;99527.75;;;7.26;77.56
13869;BME280;7004;48.206;16.402;2023-12-20T08:56:05;99523.38;;;7.27;77.98
13869;BME280;7004;48.206;16.402;2023-12-20T08:58:31;99539.00;;;7.30;76.76
13869;BME280;7004;48.206;16.402;2023-12-20T09:00:59;99571.22;;;7.33;77.58
13869;BME280;7004;48.206;16.402;2023-12-20T09:03:25;99568.97;;;7.26;77.22
13869;BME280;7004;48.206;16.402;2023-12-20T09:05:51;99564.91;;;7.20;77.81
13869;BME280;7004;48.206;16.402;2023-12-20T09:08:17;99568.25;;;7.06;78.63
13869;BME280;7004;48.206;16.402;2023-12-20T09:10:43;99565.69;;;7.22;76.67
13869;BME280;7004;48.206;16.402;2023-12-20T09:13:10;99559.56;;;7.21;78.09
13869;BME280;7004;48.206;16.402;2023-12-20T09:15:36;99561.66;;;7.15;78.31
13869;BME280;7004;48.206;16.402;2023-12-20T09:18:03;99558.59;;;7.07;79.36
13869;BME280;7004;48.206;16.402;2023-12-20T09:20:29;99570.84;;;7.23;80.05
13869;BME280;7004;48.206;16.402;2023-12-20T09:22:55;99575.59;;;7.17;81.79
13869;BME280;7004;48.206;16.402;2023-12-20T09:25:22;99563.28;;;7.00;83.18
13869;BME280;7004;48.206;16.402;2023-12-20T09:27:49;99565.00;;;7.01;84.31
13869;BME280;7004;48.206;16.402;2023-12-20T09:30:15;99557.28;;;6.81;86.82
13869;BME280;7004;48.206;16.402;2023-12-20T09:32:42;99582.00;;;6.94;85.35
13869;BME280;7004;48.206;16.402;2023-12-20T09:35:08;99574.50;;;6.86;87.94
13869;BME280;7004;48.206;16.402;2023-12-20T09:37:35;99569.31;;;7.02;86.63
13869;BME280;7004;48.206;16.402;2023-12-20T09:40:02;99590.28;;;7.04;85.80
13869;BME280;7004;48.206;16.402;2023-12-20T09:45:15;99581.31;;;6.73;87.33
13869;BME280;7004;48.206;16.402;2023-12-20T09:47:46;99563.53;;;6.78;87.37
13869;BME280;7004;48.206;16.402;2023-12-20T09:50:12;99557.75;;;6.71;87.12
13869;BME280;7004;48.206;16.402;2023-12-20T09:52:39;99577.59;;;6.77;88.09
13869;BME280;7004;48.206;16.402;2023-12-20T09:55:07;99556.38;;;6.64;89.26
13869;BME280;7004;48.206;16.402;2023-12-20T09:57:34;99567.25;;;6.56;90.01
13869;BME280;7004;48.206;16.402;2023-12-20T10:00:00;99561.44;;;6.50;89.49
13869;BME280;7004;48.206;16.402;2023-12-20T10:02:26;99560.22;;;6.57;91.08
13869;BME280;7004;48.206;16.402;2023-12-20T10:04:54;99561.38;;;6.51;91.65
13869;BME280;7004;48.206;16.402;2023-12-20T10:07:20;99554.88;;;6.59;92.68
13869;BME280;7004;48.206;16.402;2023-12-20T10:09:48;99552.72;;;6.49;92.07
13869;BME280;7004;48.206;16.402;2023-12-20T10:12:14;99540.78;;;6.25;92.61
13869;BME280;7004;48.206;16.402;2023-12-20T10:14:40;99537.41;;;6.40;92.83
13869;BME280;7004;48.206;16.402;2023-12-20T10:17:07;99528.16;;;6.33;93.85
13869;BME280;7004;48.206;16.402;2023-12-20T10:19:34;99526.69;;;6.45;93.98
13869;BME280;7004;48.206;16.402;2023-12-20T10:22:00;99529.63;;;6.39;91.24
13869;BME280;7004;48.206;16.402;2023-12-20T10:24:28;99525.44;;;6.34;92.94
13869;BME280;7004;48.206;16.402;2023-12-20T10:27:03;99503.53;;;6.36;93.04
13869;BME280;7004;48.206;16.402;2023-12-20T10:29:36;99515.69;;;6.19;92.03
13869;BME280;7004;48.206;16.402;2023-12-20T10:32:27;99500.41;;;6.27;91.88
13869;BME280;7004;48.206;16.402;2023-12-20T10:34:55;99501.75;;;6.36;90.90
13869;BME280;7004;48.206;16.402;2023-12-20T10:37:22;99502.91;;;6.30;92.03
13869;BME280;7004;48.206;16.402;2023-12-20T10:39:53;99510.63;;;6.33;90.98
13869;BME280;7004;48.206;16.402;2023-12-20T10:42:26;99502.59;;;6.37;90.71
13869;BME280;7004;48.206;16.402;2023-12-20T10:44:53;99499.41;;;6.30;91.13
13869;BME280;7004;48.206;16.402;2023-12-20T10:47:20;99506.06;;;6.37;90.76
13869;BME280;7004;48.206;16.402;2023-12-20T10:49:46;99498.56;;;6.47;88.98
13869;BME280;7004;48.206;16.402;2023-12-20T10:52:14;99484.13;;;6.38;89.46
13869;BME280;7004;48.206;16.402;2023-12-20T10:54:40;99484.88;;;6.40;90.28
13869;BME280;7004;48.206;16.402;2023-12-20T10:57:07;99489.69;;;6.49;88.99
13869;BME280;7004;48.206;16.402;2023-12-20T10:59:37;99479.03;;;6.35;89.25
13869;BME280;7004;48.206;16.402;2023-12-20T11:02:07;99490.78;;;6.63;87.76
13869;BME280;7004;48.206;16.402;2023-12-20T11:04:56;99482.34;;;6.73;86.97
13869;BME280;7004;48.206;16.402;2023-12-20T11:08:01;99458.56;;;6.59;87.39
13869;BME280;7004;48.206;16.402;2023-12-20T11:10:41;99463.72;;;6.78;86.93
13869;BME280;7004;48.206;16.402;2023-12-20T11:13:34;99454.31;;;6.90;86.52
13869;BME280;7004;48.206;16.402;2023-12-20T11:16:05;99454.81;;;6.81;86.93
13869;BME280;7004;48.206;16.402;2023-12-20T11:18:35;99445.78;;;6.69;86.81
13869;BME280;7004;48.206;16.402;2023-12-20T11:21:04;99455.00;;;6.77;87.49
13869;BME280;7004;48.206;16.402;2023-12-20T11:23:32;99435.44;;;6.83;86.89
13869;BME280;7004;48.206;16.402;2023-12-20T11:26:02;99441.31;;;6.71;87.40
13869;BME280;7004;48.206;16.402;2023-12-20T11:28:29;99442.25;;;6.70;87.56
13869;BME280;7004;48.206;16.402;2023-12-20T11:31:00;99428.75;;;6.93;87.04
13869;BME280;7004;48.206;16.402;2023-12-20T11:33:35;99429.34;;;6.65;86.80
13869;BME280;7004;48.206;16.402;2023-12-20T11:36:02;99406.53;;;6.83;85.81
13869;BME280;7004;48.206;16.402;2023-12-20T11:38:38;99427.97;;;6.91;86.81
13869;BME280;7004;48.206;16.402;2023-12-20T11:41:07;99415.19;;;6.85;86.30
13869;BME280;7004;48.206;16.402;2023-12-20T11:43:37;99429.34;;;6.83;86.71
13869;BME280;7004;48.206;16.402;2023-12-20T11:46:06;99430.97;;;7.01;85.81
13869;BME280;7004;48.206;16.402;2023-12-20T11:48:38;99438.88;;;7.01;85.70
13869;BME280;7004;48.206;16.402;2023-12-20T11:51:10;99408.94;;;7.04;86.34
13869;BME280;7004;48.206;16.402;2023-12-20T11:53:37;99430.63;;;7.07;85.89
13869;BME280;7004;48.206;16.402;2023-12-20T11:56:06;99426.31;;;7.06;85.56
13869;BME280;7004;48.206;16.402;2023-12-20T11:58:33;99424.81;;;7.18;84.93
13869;BME280;7004;48.206;16.402;2023-12-20T12:00:59;99404.28;;;7.25;85.04
13869;BME280;7004;48.206;16.402;2023-12-20T12:03:26;99405.13;;;7.25;84.71
13869;BME280;7004;48.206;16.402;2023-12-20T12:05:53;99409.56;;;7.25;83.61
13869;BME280;7004;48.206;16.402;2023-12-20T12:08:19;99410.50;;;7.39;82.62
13869;BME280;7004;48.206;16.402;2023-12-20T12:10:45;99411.84;;;7.47;82.64
13869;BME280;7004;48.206;16.402;2023-12-20T12:13:12;99414.03;;;7.70;82.28
13869;BME280;7004;48.206;16.402;2023-12-20T12:15:40;99408.97;;;8.86;81.04
13869;BME280;7004;48.206;16.402;2023-12-20T12:18:08;99409.69;;;8.45;79.39
13869;BME280;7004;48.206;16.402;2023-12-20T12:20:35;99410.88;;;8.70;77.12
13869;BME280;7004;48.206;16.402;2023-12-20T12:23:03;99410.28;;;8.65;74.97
13869;BME280;7004;48.206;16.402;2023-12-20T12:25:32;99409.41;;;9.36;75.71
13869;BME280;7004;48.206;16.402;2023-12-20T12:27:59;99402.56;;;9.19;73.62
13869;BME280;7004;48.206;16.402;2023-12-20T12:30:26;99399.31;;;8.28;77.13
13869;BME280;7004;48.206;16.402;2023-12-20T12:32:53;99403.97;;;7.93;78.36
13869;BME280;7004;48.206;16.402;2023-12-20T12:35:20;99402.44;;;7.88;78.65
13869;BME280;7004;48.206;16.402;2023-12-20T12:37:46;99405.53;;;7.81;79.35
13869;BME280;7004;48.206;16.402;2023-12-20T12:40:15;99412.19;;;7.56;80.04
13869;BME280;7004;48.206;16.402;2023-12-20T12:42:44;99412.63;;;7.95;79.26
13869;BME280;7004;48.206;16.402;2023-12-20T12:45:11;99399.97;;;7.55;80.91
13869;BME280;7004;48.206;16.402;2023-12-20T12:47:38;99417.78;;;7.50;81.05
13869;BME280;7004;48.206;16.402;2023-12-20T12:50:04;99411.16;;;7.59;80.60
13869;BME280;7004;48.206;16.402;2023-12-20T12:52:31;99408.53;;;7.59;80.18
13869;BME280;7004;48.206;16.402;2023-12-20T12:54:57;99410.06;;;7.47;80.48
13869;BME280;7004;48.206;16.402;2023-12-20T12:57:23;99415.81;;;7.54;80.80
13869;BME280;7004;48.206;16.402;2023-12-20T12:59:50;99417.38;;;7.42;80.77
13869;BME280;7004;48.206;16.402;2023-12-20T13:02:16;99416.06;;;7.49;80.44
13869;BME280;7004;48.206;16.402;2023-12-20T13:04:43;99413.03;;;7.57;80.54
13869;BME280;7004;48.206;16.402;2023-12-20T13:07:10;99409.72;;;7.69;80.29
13869;BME280;7004;48.206;16.402;2023-12-20T13:09:39;99405.13;;;7.57;80.17